createdAt,value
2023-03-26T00:00:53.690Z,68.51
2023-03-26T00:06:44.388Z,68.44
2023-03-26T00:12:11.046Z,68.27
2023-03-26T00:17:39.353Z,68.58
2023-03-26T00:23:06.948Z,68.99
2023-03-26T00:28:31.032Z,69.32
2023-03-26T00:34:05.823Z,69.50
2023-03-26T00:39:50.315Z,69.22
2023-03-26T00:45:27.680Z,68.93
2023-03-26T00:51:16.256Z,68.52
2023-03-26T00:57:11.526Z,68.46
2023-03-26T01:03:53.096Z,68.45
2023-03-26T01:09:33.958Z,68.49
2023-03-26T01:15:08.853Z,68.70
2023-03-26T01:21:04.876Z,68.76
2023-03-26T01:27:41.773Z,68.89
2023-03-26T01:33:37.421Z,69.03
2023-03-26T01:39:52.830Z,69.17
2023-03-26T01:46:02.029Z,69.07
2023-03-26T01:52:20.215Z,69.09
2023-03-26T01:58:36.166Z,69.30
2023-03-26T02:05:02.462Z,69.41
2023-03-26T02:10:31.205Z,69.41
2023-03-26T02:16:41.810Z,69.80
2023-03-26T02:22:41.874Z,71.18
2023-03-26T02:28:40.870Z,71.97
2023-03-26T02:34:57.807Z,71.87
2023-03-26T02:40:29.764Z,71.52
2023-03-26T02:45:50.588Z,71.36
2023-03-26T02:52:05.892Z,71.43
2023-03-26T02:57:33.557Z,71.69
2023-03-26T03:04:17.566Z,71.44
2023-03-26T03:10:44.395Z,71.25
2023-03-26T03:16:45.036Z,70.96
2023-03-26T03:23:19.336Z,70.79
2023-03-26T03:30:11.505Z,70.90
2023-03-26T03:37:03.167Z,70.61
2023-03-26T03:42:57.394Z,71.24
2023-03-26T03:49:51.699Z,70.99
2023-03-26T03:55:58.774Z,70.94
2023-03-26T04:02:53.557Z,71.02
2023-03-26T04:08:26.277Z,71.30
2023-03-26T04:13:58.300Z,71.26
2023-03-26T04:20:18.193Z,71.05
2023-03-26T04:26:00.859Z,71.14
2023-03-26T04:31:35.716Z,71.08
2023-03-26T04:38:02.048Z,70.94
2023-03-26T04:44:04.331Z,70.87
2023-03-26T04:50:28.053Z,70.63
2023-03-26T04:55:54.253Z,70.45
2023-03-26T05:02:12.665Z,70.27
2023-03-26T05:08:12.566Z,70.03
2023-03-26T05:14:06.513Z,69.78
2023-03-26T05:20:04.449Z,69.69
2023-03-26T05:25:46.668Z,69.55
2023-03-26T05:31:53.106Z,69.52
2023-03-26T05:38:33.554Z,69.32
2023-03-26T05:45:00.179Z,68.61
2023-03-26T05:51:50.828Z,67.65
2023-03-26T05:58:41.774Z,67.03
2023-03-26T06:04:56.491Z,67.05
2023-03-26T06:10:53.603Z,67.07
2023-03-26T06:17:23.728Z,64.11
2023-03-26T06:24:22.227Z,63.82
2023-03-26T06:30:31.147Z,63.79
2023-03-26T06:37:31.893Z,64.19
2023-03-26T06:44:19.531Z,64.70
2023-03-26T06:51:05.427Z,65.32
2023-03-26T06:57:25.875Z,64.96
2023-03-26T07:04:12.433Z,65.20
2023-03-26T07:11:13.991Z,65.40
2023-03-26T07:17:26.038Z,65.33
2023-03-26T07:23:48.057Z,65.06
2023-03-26T07:30:33.513Z,64.31
2023-03-26T07:37:25.628Z,63.97
2023-03-26T07:43:53.155Z,63.75
2023-03-26T07:49:30.959Z,62.61
2023-03-26T07:55:14.045Z,60.58
2023-03-26T08:01:53.471Z,60.50
2023-03-26T08:07:31.699Z,60.38
2023-03-26T08:13:20.443Z,60.95
2023-03-26T08:19:17.157Z,60.93
2023-03-26T08:25:19.111Z,59.34
2023-03-26T08:31:21.132Z,59.09
2023-03-26T08:37:50.769Z,58.71
2023-03-26T08:44:22.097Z,58.80
2023-03-26T08:50:41.422Z,58.74
2023-03-26T08:56:46.452Z,59.38
2023-03-26T09:03:29.053Z,59.32
2023-03-26T09:08:59.457Z,59.32
2023-03-26T09:15:20.657Z,59.25
2023-03-26T09:21:43.762Z,59.87
2023-03-26T09:28:15.327Z,62.18
2023-03-26T09:34:49.971Z,63.62
2023-03-26T09:41:16.027Z,65.10
2023-03-26T09:46:37.152Z,66.47
2023-03-26T09:52:39.550Z,67.24
2023-03-26T09:58:09.936Z,67.91
2023-03-26T10:03:29.126Z,67.79
2023-03-26T10:09:27.007Z,66.58
2023-03-26T10:15:25.177Z,63.28
2023-03-26T10:21:55.993Z,60.10
2023-03-26T10:27:54.660Z,58.25
2023-03-26T10:34:10.668Z,59.58
2023-03-26T10:40:48.125Z,60.81
2023-03-26T10:46:27.599Z,61.79
2023-03-26T10:51:58.398Z,59.86
2023-03-26T10:57:37.442Z,57.47
2023-03-26T11:03:30.998Z,54.07
2023-03-26T11:09:54.909Z,53.08
2023-03-26T11:16:25.357Z,52.91
2023-03-26T11:22:21.226Z,51.61
2023-03-26T11:28:20.896Z,49.71
2023-03-26T11:33:49.195Z,48.76
2023-03-26T11:39:32.346Z,47.84
2023-03-26T11:45:18.694Z,48.74
2023-03-26T11:51:24.563Z,47.61
2023-03-26T11:57:06.062Z,45.76
2023-03-26T12:03:23.383Z,44.92
2023-03-26T12:08:41.533Z,45.00
2023-03-26T12:14:58.214Z,45.08
2023-03-26T12:20:46.654Z,45.27
2023-03-26T12:26:54.411Z,45.30
2023-03-26T12:32:16.982Z,46.52
2023-03-26T12:37:43.924Z,45.25
2023-03-26T12:44:50.125Z,45.26
2023-03-26T12:48:26.561Z,45.54
2023-03-26T12:54:02.346Z,45.23
2023-03-26T12:59:25.919Z,45.84
2023-03-26T13:05:05.102Z,44.56
2023-03-26T13:10:50.925Z,44.35
2023-03-26T13:16:03.495Z,44.19
2023-03-26T13:21:11.793Z,44.22
2023-03-26T13:26:35.284Z,44.67
2023-03-26T13:32:08.372Z,44.24
2023-03-26T13:37:28.072Z,44.62
2023-03-26T13:43:40.481Z,45.70
2023-03-26T13:48:59.787Z,45.93
2023-03-26T13:54:16.085Z,46.20
2023-03-26T13:59:30.050Z,46.11
2023-03-26T14:05:05.132Z,46.14
2023-03-26T14:10:55.532Z,45.70
2023-03-26T14:17:01.200Z,45.41
2023-03-26T14:23:09.242Z,42.99
2023-03-26T14:28:24.530Z,42.61
2023-03-26T14:33:38.722Z,43.21
2023-03-26T14:39:21.228Z,44.23
2023-03-26T14:45:09.161Z,44.81
2023-03-26T14:50:36.483Z,44.38
2023-03-26T14:56:15.658Z,44.33
2023-03-26T15:01:25.538Z,44.64
2023-03-26T15:07:12.495Z,44.97
2023-03-26T15:12:42.839Z,45.25
2023-03-26T15:18:23.027Z,45.49
2023-03-26T15:23:34.054Z,45.56
2023-03-26T15:29:24.845Z,45.33
2023-03-26T15:34:50.675Z,45.13
2023-03-26T15:40:14.785Z,44.55
2023-03-26T15:45:57.544Z,43.42
2023-03-26T15:52:00.294Z,42.17
2023-03-26T15:57:26.445Z,41.41
2023-03-26T16:02:38.502Z,41.64
2023-03-26T16:08:21.033Z,42.43
2023-03-26T16:14:08.913Z,43.00
2023-03-26T16:19:22.730Z,43.75
2023-03-26T16:25:26.579Z,43.99
2023-03-26T16:31:39.570Z,44.73
2023-03-26T16:36:49.386Z,45.38
2023-03-26T16:42:06.226Z,45.63
2023-03-26T16:48:11.114Z,46.18
2023-03-26T16:54:54.796Z,46.84
2023-03-26T17:01:28.749Z,47.58
2023-03-26T17:06:53.552Z,48.13
2023-03-26T17:12:55.089Z,48.34
2023-03-26T17:19:19.123Z,48.73
2023-03-26T17:24:43.832Z,48.97
2023-03-26T17:30:27.093Z,49.51
2023-03-26T17:35:49.461Z,49.87
2023-03-26T17:41:01.407Z,50.12
2023-03-26T17:46:44.764Z,50.73
2023-03-26T17:52:16.635Z,51.05
2023-03-26T17:58:25.461Z,51.30
2023-03-26T18:04:07.749Z,51.54
2023-03-26T18:09:38.556Z,51.92
2023-03-26T18:15:25.198Z,52.27
2023-03-26T18:20:31.519Z,52.48
2023-03-26T18:25:34.700Z,52.63
2023-03-26T18:30:47.827Z,54.04
2023-03-26T18:35:58.342Z,55.60
2023-03-26T18:41:05.607Z,56.91
2023-03-26T18:46:12.520Z,58.42
2023-03-26T18:51:23.360Z,59.17
2023-03-26T18:56:36.221Z,59.74
2023-03-26T19:01:38.507Z,59.91
2023-03-26T19:06:48.831Z,60.11
2023-03-26T19:11:58.062Z,60.24
2023-03-26T19:18:05.383Z,60.86
2023-03-26T19:24:32.346Z,61.92
2023-03-26T19:29:54.700Z,63.10
2023-03-26T19:35:02.495Z,64.26
2023-03-26T19:40:34.447Z,65.30
2023-03-26T19:46:54.014Z,66.64
2023-03-26T19:52:32.327Z,67.66
2023-03-26T19:57:48.187Z,68.54
2023-03-26T20:03:04.103Z,69.11
2023-03-26T20:08:40.522Z,69.61
2023-03-26T20:13:44.439Z,70.26
2023-03-26T20:19:48.250Z,71.31
2023-03-26T20:25:20.299Z,71.56
2023-03-26T20:30:37.327Z,71.81
2023-03-26T20:35:53.485Z,72.33
2023-03-26T20:41:16.831Z,72.18
2023-03-26T20:46:40.132Z,73.03
2023-03-26T20:52:07.378Z,72.74
2023-03-26T20:57:29.058Z,73.02
2023-03-26T21:02:42.005Z,72.86
2023-03-26T21:08:04.025Z,72.93
2023-03-26T21:13:28.342Z,73.21
2023-03-26T21:18:35.074Z,73.00
2023-03-26T21:24:04.586Z,73.44
2023-03-26T21:29:16.833Z,74.34
2023-03-26T21:34:19.861Z,73.90
2023-03-26T21:39:25.274Z,73.80
2023-03-26T21:44:28.689Z,73.97
2023-03-26T21:49:46.497Z,73.90
2023-03-26T21:55:04.082Z,74.62
2023-03-26T22:00:28.231Z,74.36
2023-03-26T22:06:10.946Z,74.65
2023-03-26T22:12:23.655Z,74.48
2023-03-26T22:18:37.407Z,74.84
2023-03-26T22:24:08.355Z,75.10
2023-03-26T22:30:22.839Z,74.95
2023-03-26T22:35:45.647Z,75.37
2023-03-26T22:40:59.062Z,75.65
2023-03-26T22:46:32.499Z,76.04
2023-03-26T22:52:13.008Z,76.15
2023-03-26T22:57:43.937Z,76.45
2023-03-26T23:02:52.796Z,76.61
2023-03-26T23:08:26.732Z,76.57
2023-03-26T23:14:11.018Z,76.48
2023-03-26T23:19:33.121Z,76.56
2023-03-26T23:25:25.281Z,76.92
2023-03-26T23:30:57.233Z,76.47
2023-03-26T23:36:33.883Z,76.56
2023-03-26T23:42:04.710Z,77.14
2023-03-26T23:47:52.646Z,77.15
2023-03-26T23:53:28.495Z,76.94
2023-03-26T23:59:41.412Z,76.57
